Time;durP1;ratioP1;P1;durP2;ratioP2;P2;SDS_P1;SDS_P2;PMS_P1;PMS_P2;Temp;Humidity;BMP_temperature;BMP_pressure;BME280_temperature;BME280_humidity;BME280_pressure;Samples;Min_cycle;Max_cycle;Signal;HPM_P1;HPM_P2
2021/10/10 00:02:03;;;;;;;14.87;11.63;;;7.00;1.00;;;;;;5108675;28;20467;-55
2021/10/10 00:04:29;;;;;;;15.80;13.47;;;7.00;1.00;;;;;;5108928;28;20181;-57
2021/10/10 00:06:54;;;;;;;16.97;12.80;;;7.00;1.00;;;;;;5107344;28;20264;-56
2021/10/10 00:09:20;;;;;;;17.00;13.27;;;6.90;1.00;;;;;;5093082;28;20447;-54
2021/10/10 00:11:45;;;;;;;15.97;13.00;;;6.90;1.00;;;;;;5106196;28;20630;-57
2021/10/10 00:14:11;;;;;;;16.40;12.33;;;6.90;1.00;;;;;;5107180;28;20209;-54
2021/10/10 00:16:36;;;;;;;17.77;12.90;;;6.90;1.00;;;;;;5103971;28;20762;-54
2021/10/10 00:19:02;;;;;;;13.50;12.10;;;6.90;1.00;;;;;;5109625;28;20245;-55
2021/10/10 00:21:28;;;;;;;17.50;12.63;;;6.90;1.00;;;;;;5108778;28;20206;-54
2021/10/10 00:23:53;;;;;;;14.87;12.20;;;6.80;1.00;;;;;;5095490;28;20187;-53
2021/10/10 00:26:19;;;;;;;15.27;11.80;;;6.80;1.00;;;;;;5105246;28;20186;-54
2021/10/10 00:28:44;;;;;;;16.13;12.60;;;6.80;1.00;;;;;;5106471;28;20659;-53
2021/10/10 00:31:10;;;;;;;13.23;11.70;;;6.80;1.00;;;;;;5106242;28;20258;-55
2021/10/10 00:33:35;;;;;;;15.87;13.33;;;6.80;1.00;;;;;;5103886;27;20311;-54
2021/10/10 00:36:01;;;;;;;15.00;12.20;;;6.80;1.00;;;;;;5104027;28;20227;-55
2021/10/10 00:38:26;;;;;;;15.83;12.60;;;6.70;1.00;;;;;;5101913;28;20210;-54
2021/10/10 00:40:52;;;;;;;16.00;12.03;;;6.70;1.00;;;;;;5106814;28;20182;-54
2021/10/10 00:43:17;;;;;;;16.97;12.90;;;6.60;1.00;;;;;;5108865;28;20178;-53
2021/10/10 00:45:48;;;;;;;15.93;12.37;;;6.60;1.00;;;;;;5105431;28;20611;-54
2021/10/10 00:48:13;;;;;;;16.47;11.90;;;6.60;1.00;;;;;;5109246;28;20666;-55
2021/10/10 00:50:39;;;;;;;16.00;11.90;;;6.50;1.00;;;;;;5071807;28;20448;-53
2021/10/10 00:53:06;;;;;;;13.67;11.10;;;6.50;1.00;;;;;;5108051;28;20297;-54
2021/10/10 00:55:34;;;;;;;15.43;11.90;;;6.50;1.00;;;;;;5107221;28;20636;-53
2021/10/10 00:58:02;;;;;;;12.30;10.93;;;6.50;1.00;;;;;;5103224;28;20464;-52
2021/10/10 01:00:28;;;;;;;16.00;12.63;;;6.60;1.00;;;;;;5106306;28;20837;-53
2021/10/10 01:02:57;;;;;;;20.53;12.27;;;6.50;1.00;;;;;;5106369;28;20479;-55
2021/10/10 01:05:24;;;;;;;18.60;12.10;;;6.50;1.00;;;;;;5106290;28;20262;-52
2021/10/10 01:07:50;;;;;;;15.50;12.33;;;6.50;1.00;;;;;;5104068;28;20445;-53
2021/10/10 01:10:16;;;;;;;15.73;11.63;;;6.40;1.00;;;;;;5092403;28;20456;-55
2021/10/10 01:12:43;;;;;;;13.70;10.43;;;6.40;1.00;;;;;;5104673;28;20444;-53
2021/10/10 01:15:09;;;;;;;16.80;12.40;;;6.30;1.00;;;;;;5106093;28;20816;-55
2021/10/10 01:17:35;;;;;;;15.07;11.00;;;6.30;1.00;;;;;;5107762;28;20434;-55
2021/10/10 01:20:03;;;;;;;14.77;11.40;;;6.30;1.00;;;;;;5107597;28;21011;-55
2021/10/10 01:22:29;;;;;;;18.97;13.00;;;6.30;1.00;;;;;;5108369;28;20522;-54
2021/10/10 01:24:55;;;;;;;12.97;11.17;;;6.40;1.00;;;;;;5107233;28;20444;-55
2021/10/10 01:27:21;;;;;;;17.30;12.10;;;6.40;1.00;;;;;;5101651;28;20834;-53
2021/10/10 01:29:46;;;;;;;16.53;12.47;;;6.40;1.00;;;;;;5105428;28;20194;-53
2021/10/10 01:32:12;;;;;;;13.70;10.37;;;6.30;1.00;;;;;;5102380;28;20187;-54
2021/10/10 01:34:42;;;;;;;17.00;11.60;;;6.30;1.00;;;;;;5109807;28;20209;-53
2021/10/10 01:37:07;;;;;;;14.53;11.43;;;6.30;1.00;;;;;;5106693;28;20275;-53
2021/10/10 01:39:33;;;;;;;14.07;10.77;;;6.30;1.00;;;;;;5107496;28;20503;-53
2021/10/10 01:41:59;;;;;;;16.00;11.30;;;6.30;1.00;;;;;;5109790;28;20213;-52
2021/10/10 01:44:24;;;;;;;13.37;11.03;;;6.20;1.00;;;;;;5111200;28;20753;-55
2021/10/10 01:46:50;;;;;;;14.70;11.00;;;6.30;1.00;;;;;;5110734;28;20222;-55
2021/10/10 01:49:15;;;;;;;13.00;10.33;;;6.30;1.00;;;;;;5111004;28;20349;-54
2021/10/10 01:51:42;;;;;;;14.13;11.23;;;6.20;1.00;;;;;;5112460;28;20233;-55
2021/10/10 01:54:07;;;;;;;13.20;10.13;;;6.20;1.00;;;;;;5111495;28;20235;-53
2021/10/10 01:56:33;;;;;;;15.57;12.20;;;6.20;1.00;;;;;;5106590;28;20875;-53
2021/10/10 01:58:58;;;;;;;13.47;10.90;;;6.20;1.00;;;;;;5112949;28;20209;-55
2021/10/10 02:01:24;;;;;;;14.30;10.90;;;6.20;1.00;;;;;;5111924;28;20658;-53
2021/10/10 02:03:49;;;;;;;15.17;10.37;;;6.10;1.00;;;;;;5109578;28;20593;-53
2021/10/10 02:06:15;;;;;;;13.07;10.23;;;6.10;1.00;;;;;;5109262;28;20193;-55
2021/10/10 02:08:40;;;;;;;14.83;10.40;;;6.10;1.00;;;;;;5109859;28;20734;-55
2021/10/10 02:11:06;;;;;;;15.27;11.23;;;6.10;1.00;;;;;;5109423;28;20726;-54
2021/10/10 02:13:31;;;;;;;14.53;11.37;;;6.00;1.00;;;;;;5110714;28;20677;-55
2021/10/10 02:15:57;;;;;;;12.03;10.77;;;6.10;1.00;;;;;;5108866;28;20548;-52
2021/10/10 02:18:24;;;;;;;13.67;10.53;;;6.00;1.00;;;;;;5112595;28;20233;-51
2021/10/10 02:20:50;;;;;;;12.53;10.80;;;5.90;1.00;;;;;;5111546;28;20190;-57
2021/10/10 02:23:16;;;;;;;16.00;11.77;;;5.90;1.00;;;;;;5104736;28;20809;-55
2021/10/10 02:25:41;;;;;;;18.87;11.97;;;6.00;1.00;;;;;;5108876;28;20463;-53
2021/10/10 02:28:07;;;;;;;12.77;10.30;;;5.90;1.00;;;;;;5111761;28;20178;-54
2021/10/10 02:30:32;;;;;;;14.93;10.70;;;5.90;1.00;;;;;;5110020;28;20263;-53
2021/10/10 02:32:58;;;;;;;11.10;9.87;;;5.80;1.00;;;;;;5107737;28;20182;-53
2021/10/10 02:35:24;;;;;;;14.67;10.07;;;5.80;1.00;;;;;;5113551;27;20194;-53
2021/10/10 02:37:49;;;;;;;13.37;10.83;;;5.80;1.00;;;;;;5117104;27;20276;-53
2021/10/10 02:40:15;;;;;;;11.90;10.10;;;5.80;1.00;;;;;;5107528;28;20182;-54
2021/10/10 02:42:41;;;;;;;14.43;11.50;;;5.80;1.00;;;;;;5109392;28;20218;-53
2021/10/10 02:45:07;;;;;;;16.70;11.37;;;5.70;1.00;;;;;;5108828;28;20199;-56
2021/10/10 02:47:33;;;;;;;11.80;10.33;;;5.60;1.00;;;;;;5112219;28;20185;-55
2021/10/10 02:49:58;;;;;;;13.73;10.53;;;5.60;1.00;;;;;;5108918;28;20953;-54
2021/10/10 02:52:24;;;;;;;15.30;11.13;;;5.60;1.00;;;;;;5107566;28;20340;-54
2021/10/10 02:54:50;;;;;;;13.53;10.70;;;5.60;1.00;;;;;;5108187;28;20347;-55
2021/10/10 02:57:16;;;;;;;14.10;10.50;;;5.60;1.00;;;;;;5103536;28;20602;-55
2021/10/10 02:59:42;;;;;;;15.03;11.67;;;5.60;1.00;;;;;;5108411;28;20509;-54
2021/10/10 03:02:07;;;;;;;14.73;11.10;;;5.60;1.00;;;;;;5109170;28;20657;-55
2021/10/10 03:04:33;;;;;;;14.43;11.33;;;5.50;1.00;;;;;;5103476;28;20329;-54
2021/10/10 03:06:59;;;;;;;15.97;11.70;;;5.40;1.00;;;;;;5093131;28;20867;-54
2021/10/10 03:09:25;;;;;;;14.70;11.07;;;5.40;1.00;;;;;;5102430;28;20551;-52
2021/10/10 03:11:50;;;;;;;15.63;11.67;;;5.40;1.00;;;;;;5099377;28;20447;-54
2021/10/10 03:14:16;;;;;;;13.40;10.50;;;5.40;1.00;;;;;;5102618;27;20548;-55
2021/10/10 03:16:41;;;;;;;15.23;11.37;;;5.40;1.00;;;;;;5104932;28;20601;-55
2021/10/10 03:19:07;;;;;;;15.80;10.77;;;5.40;1.00;;;;;;5103225;28;20215;-52
2021/10/10 03:21:32;;;;;;;17.60;10.10;;;5.40;1.00;;;;;;5103957;28;20179;-55
2021/10/10 03:23:58;;;;;;;16.93;10.33;;;5.40;1.00;;;;;;5099920;28;20179;-53
2021/10/10 03:26:23;;;;;;;10.90;9.53;;;5.40;1.00;;;;;;5099288;28;20184;-53
2021/10/10 03:28:49;;;;;;;12.43;9.80;;;5.40;1.00;;;;;;5101067;28;20194;-54
2021/10/10 03:31:14;;;;;;;14.67;10.27;;;5.40;1.00;;;;;;5100958;28;20255;-55
2021/10/10 03:33:40;;;;;;;19.87;12.80;;;5.40;1.00;;;;;;5108066;28;20217;-53
2021/10/10 03:36:06;;;;;;;14.27;11.33;;;5.40;1.00;;;;;;5101371;28;20715;-53
2021/10/10 03:38:32;;;;;;;13.13;10.57;;;5.30;1.00;;;;;;5104995;28;20285;-54
2021/10/10 03:40:57;;;;;;;12.37;10.00;;;5.20;1.00;;;;;;5104809;28;20174;-55
2021/10/10 03:43:23;;;;;;;17.50;10.70;;;5.20;1.00;;;;;;5103752;28;20175;-54
2021/10/10 03:45:49;;;;;;;15.07;10.30;;;5.20;1.00;;;;;;5106621;28;20186;-53
2021/10/10 03:48:14;;;;;;;17.73;10.00;;;5.20;1.00;;;;;;5107003;28;20259;-53
2021/10/10 03:50:39;;;;;;;10.97;9.30;;;5.20;1.00;;;;;;5103341;28;20198;-53
2021/10/10 03:53:05;;;;;;;15.00;11.07;;;5.20;1.00;;;;;;5105132;28;20241;-54
2021/10/10 03:55:35;;;;;;;13.37;9.80;;;5.20;1.00;;;;;;5103965;28;20193;-52
2021/10/10 03:58:01;;;;;;;12.80;10.10;;;5.10;1.00;;;;;;5105369;28;20456;-54
2021/10/10 04:00:29;;;;;;;14.03;10.27;;;5.10;1.00;;;;;;5105518;28;20972;-53
2021/10/10 04:02:58;;;;;;;10.20;8.73;;;5.10;1.00;;;;;;5105146;28;20186;-52
2021/10/10 04:05:36;;;;;;;13.20;9.73;;;5.10;1.00;;;;;;5106716;28;20527;-53
2021/10/10 04:08:02;;;;;;;13.70;10.53;;;5.00;1.00;;;;;;5101700;28;20968;-54
2021/10/10 04:10:28;;;;;;;14.10;10.93;;;5.00;1.00;;;;;;5107617;28;20453;-53
2021/10/10 04:12:54;;;;;;;12.63;9.97;;;5.10;1.00;;;;;;5106050;28;20638;-54
2021/10/10 04:15:20;;;;;;;18.40;11.43;;;5.10;1.00;;;;;;5107055;28;20495;-54
2021/10/10 04:17:46;;;;;;;13.47;9.60;;;5.00;1.00;;;;;;5105727;28;20953;-52
2021/10/10 04:20:14;;;;;;;12.67;9.30;;;5.00;1.00;;;;;;5093902;28;20191;-54
2021/10/10 04:22:40;;;;;;;12.13;10.23;;;5.00;1.00;;;;;;5105697;28;20530;-52
2021/10/10 04:25:07;;;;;;;14.30;11.37;;;5.00;1.00;;;;;;5105459;28;20447;-53
2021/10/10 04:27:34;;;;;;;15.57;9.97;;;5.00;1.00;;;;;;5108166;28;20527;-51
2021/10/10 04:30:01;;;;;;;11.80;9.87;;;5.00;1.00;;;;;;5105747;28;20477;-54
2021/10/10 04:32:26;;;;;;;17.53;10.20;;;5.00;1.00;;;;;;5108106;28;20766;-55
2021/10/10 04:34:52;;;;;;;12.97;10.07;;;4.90;1.00;;;;;;5106376;28;20455;-53
2021/10/10 04:37:18;;;;;;;13.37;11.47;;;4.90;1.00;;;;;;5106020;28;20272;-54
2021/10/10 04:39:43;;;;;;;13.80;9.70;;;4.90;1.00;;;;;;5109035;28;20292;-54
2021/10/10 04:42:09;;;;;;;13.40;11.13;;;5.30;1.00;;;;;;5089000;28;20436;-55
2021/10/10 04:44:36;;;;;;;12.20;10.27;;;4.80;1.00;;;;;;5088737;28;20552;-52
2021/10/10 04:47:03;;;;;;;22.17;11.50;;;4.80;1.00;;;;;;5106014;28;20186;-54
2021/10/10 04:49:28;;;;;;;14.73;11.27;;;4.90;1.00;;;;;;5084481;28;20853;-55
2021/10/10 04:51:54;;;;;;;14.90;10.27;;;4.80;1.00;;;;;;5106217;28;20500;-53
2021/10/10 04:54:19;;;;;;;16.00;10.07;;;4.80;1.00;;;;;;5103016;27;20182;-53
2021/10/10 04:56:45;;;;;;;13.53;10.53;;;4.80;1.00;;;;;;5103458;28;20186;-53
2021/10/10 04:59:10;;;;;;;13.60;10.67;;;4.70;1.00;;;;;;5107079;28;20219;-54
2021/10/10 05:01:36;;;;;;;16.53;10.63;;;4.80;1.00;;;;;;5097180;28;20174;-53
2021/10/10 05:04:01;;;;;;;16.03;10.40;;;4.80;1.00;;;;;;5098715;28;20656;-52
2021/10/10 05:06:27;;;;;;;15.03;11.60;;;4.70;1.00;;;;;;5099792;28;20208;-55
2021/10/10 05:08:52;;;;;;;15.63;12.13;;;4.70;1.00;;;;;;5103293;28;20202;-54
2021/10/10 05:11:18;;;;;;;17.03;10.80;;;4.70;1.00;;;;;;5104301;28;20239;-52
2021/10/10 05:13:43;;;;;;;12.37;10.63;;;4.70;1.00;;;;;;5102800;28;20190;-52
2021/10/10 05:16:09;;;;;;;14.07;11.43;;;4.60;1.00;;;;;;5099885;27;20194;-53
2021/10/10 05:18:34;;;;;;;14.47;11.33;;;4.60;1.00;;;;;;5105586;28;20214;-54
2021/10/10 05:21:00;;;;;;;16.17;11.03;;;4.60;1.00;;;;;;5106432;28;20194;-53
2021/10/10 05:23:25;;;;;;;14.53;10.10;;;4.60;1.00;;;;;;5101760;28;20628;-55
2021/10/10 05:25:51;;;;;;;12.30;9.20;;;4.60;1.00;;;;;;5108439;28;20201;-53
2021/10/10 05:28:16;;;;;;;13.90;10.70;;;4.50;1.00;;;;;;5103065;28;20629;-56
2021/10/10 05:30:42;;;;;;;12.10;10.00;;;4.60;1.00;;;;;;5104387;28;20672;-54
2021/10/10 05:33:08;;;;;;;14.23;10.77;;;4.60;1.00;;;;;;5106640;28;20193;-53
2021/10/10 05:35:35;;;;;;;19.60;9.80;;;4.60;1.00;;;;;;5105373;28;20205;-54
2021/10/10 05:38:01;;;;;;;15.10;10.80;;;4.60;1.00;;;;;;5099460;28;20470;-55
2021/10/10 05:40:27;;;;;;;11.77;9.47;;;4.60;1.00;;;;;;5100063;28;20875;-52
2021/10/10 05:42:52;;;;;;;13.90;10.10;;;4.60;1.00;;;;;;5103087;28;20196;-53
2021/10/10 05:45:18;;;;;;;14.37;11.00;;;4.60;1.00;;;;;;5102765;28;20193;-55
2021/10/10 05:47:43;;;;;;;13.17;10.30;;;4.60;1.00;;;;;;5103975;28;20239;-54
2021/10/10 05:50:09;;;;;;;15.90;11.40;;;4.60;1.00;;;;;;5101462;28;20193;-53
2021/10/10 05:52:35;;;;;;;12.40;9.47;;;4.60;1.00;;;;;;5101267;28;20222;-54
2021/10/10 05:55:01;;;;;;;14.17;10.80;;;4.60;1.00;;;;;;5088790;28;20585;-54
2021/10/10 05:57:34;;;;;;;15.97;11.10;;;4.60;1.00;;;;;;5103856;28;20473;-56
2021/10/10 06:00:02;;;;;;;11.90;9.43;;;4.70;1.00;;;;;;5104514;28;20244;-55
2021/10/10 06:02:30;;;;;;;14.07;11.23;;;4.70;1.00;;;;;;5106258;28;20444;-56
2021/10/10 06:04:55;;;;;;;12.77;10.20;;;4.80;1.00;;;;;;5101546;28;20787;-52
2021/10/10 06:07:21;;;;;;;14.83;10.30;;;4.70;1.00;;;;;;5108335;28;20543;-53
2021/10/10 06:09:47;;;;;;;14.97;9.60;;;4.80;1.00;;;;;;5105500;28;20214;-55
2021/10/10 06:12:12;;;;;;;15.67;11.97;;;4.90;1.00;;;;;;5106598;28;20482;-51
2021/10/10 06:14:38;;;;;;;15.03;10.47;;;4.90;1.00;;;;;;5106457;28;20216;-55
2021/10/10 06:17:04;;;;;;;15.50;11.10;;;4.90;1.00;;;;;;5107041;28;20235;-52
2021/10/10 06:19:30;;;;;;;14.10;10.53;;;4.90;1.00;;;;;;5103301;28;20194;-52
2021/10/10 06:21:56;;;;;;;12.80;9.80;;;5.00;1.00;;;;;;5104204;28;20519;-55
2021/10/10 06:24:21;;;;;;;13.57;10.73;;;5.00;1.00;;;;;;5107595;28;20197;-53
2021/10/10 06:26:47;;;;;;;13.70;10.80;;;5.10;1.00;;;;;;5111722;28;20671;-52
2021/10/10 06:29:13;;;;;;;13.50;10.30;;;5.10;1.00;;;;;;5111524;28;20184;-52
2021/10/10 06:31:39;;;;;;;15.00;10.43;;;5.20;1.00;;;;;;5112265;28;20179;-53
2021/10/10 06:34:04;;;;;;;15.63;10.17;;;5.30;1.00;;;;;;5106381;28;20451;-54
2021/10/10 06:36:30;;;;;;;12.50;10.23;;;5.30;1.00;;;;;;5109594;28;20197;-54
2021/10/10 06:38:56;;;;;;;15.07;11.10;;;5.30;1.00;;;;;;5108701;28;20693;-54
2021/10/10 06:41:22;;;;;;;12.43;10.03;;;5.50;1.00;;;;;;5107532;28;20551;-53
2021/10/10 06:43:47;;;;;;;12.30;9.30;;;5.40;1.00;;;;;;5110309;28;20430;-53
2021/10/10 06:46:13;;;;;;;16.20;10.80;;;6.30;1.00;;;;;;5107419;27;20289;-55
2021/10/10 06:48:38;;;;;;;12.27;9.70;;;5.60;1.00;;;;;;5107940;28;20185;-55
2021/10/10 06:51:04;;;;;;;13.57;10.40;;;5.70;1.00;;;;;;5110404;28;20275;-55
2021/10/10 06:53:29;;;;;;;11.27;9.80;;;5.70;1.00;;;;;;5109199;28;20178;-55
2021/10/10 06:55:55;;;;;;;12.30;9.80;;;5.70;1.00;;;;;;5107540;28;20649;-53
2021/10/10 06:58:22;;;;;;;12.03;9.97;;;5.80;1.00;;;;;;5105758;28;20206;-56
2021/10/10 07:00:47;;;;;;;12.73;9.47;;;5.80;1.00;;;;;;5100120;28;20172;-54
2021/10/10 07:03:13;;;;;;;14.60;9.30;;;5.80;1.00;;;;;;5106208;28;20543;-54
2021/10/10 07:05:38;;;;;;;23.30;10.50;;;5.90;1.00;;;;;;5103231;28;20191;-54
2021/10/10 07:08:04;;;;;;;11.60;9.27;;;6.10;1.00;;;;;;5102675;28;20187;-55
2021/10/10 07:10:30;;;;;;;13.47;9.60;;;6.20;1.00;;;;;;5107859;27;20217;-53
2021/10/10 07:12:55;;;;;;;16.70;10.73;;;6.20;1.00;;;;;;5103829;27;20179;-54
2021/10/10 07:15:21;;;;;;;12.53;10.20;;;6.40;1.00;;;;;;5107013;28;20315;-53
2021/10/10 07:17:48;;;;;;;13.13;9.10;;;6.60;1.00;;;;;;5106026;27;20225;-55
2021/10/10 07:20:18;;;;;;;11.80;9.27;;;7.00;1.00;;;;;;5108273;28;20187;-53
2021/10/10 07:22:46;;;;;;;11.53;8.70;;;7.40;1.00;;;;;;5088056;28;20443;-52
2021/10/10 07:25:12;;;;;;;12.83;10.27;;;7.80;1.00;;;;;;5104724;28;20916;-53
2021/10/10 07:27:40;;;;;;;10.30;8.97;;;7.80;1.00;;;;;;5105870;28;20443;-54
2021/10/10 07:30:08;;;;;;;10.97;9.17;;;7.80;1.00;;;;;;5106845;27;20448;-55
2021/10/10 07:32:35;;;;;;;11.83;9.17;;;7.80;1.00;;;;;;5104447;28;20521;-53
2021/10/10 07:35:01;;;;;;;11.97;9.43;;;7.70;1.00;;;;;;5107643;27;20969;-53
2021/10/10 07:37:27;;;;;;;9.77;8.73;;;7.80;1.00;;;;;;5103680;28;20444;-55
2021/10/10 07:39:52;;;;;;;11.57;9.03;;;7.80;1.00;;;;;;5105844;28;20471;-53
2021/10/10 07:42:18;;;;;;;13.43;9.13;;;7.80;1.00;;;;;;5105672;28;20179;-55
2021/10/10 07:44:45;;;;;;;13.60;8.93;;;7.90;1.00;;;;;;5109164;27;20194;-53
2021/10/10 07:47:16;;;;;;;12.43;9.30;;;8.10;1.00;;;;;;5106848;28;20179;-53
2021/10/10 07:49:43;;;;;;;14.77;9.90;;;8.10;1.00;;;;;;5105145;28;20436;-53
2021/10/10 07:52:09;;;;;;;11.47;8.87;;;8.20;1.00;;;;;;5106605;28;20790;-56
2021/10/10 07:54:35;;;;;;;11.10;8.70;;;8.20;1.00;;;;;;5091761;28;20449;-55
2021/10/10 07:57:00;;;;;;;11.80;8.83;;;8.40;1.00;;;;;;5109616;28;20277;-55
2021/10/10 07:59:26;;;;;;;12.57;9.23;;;8.50;1.00;;;;;;5095921;28;20251;-56
2021/10/10 08:01:52;;;;;;;12.37;9.57;;;8.60;1.00;;;;;;5105791;28;20178;-54
2021/10/10 08:04:17;;;;;;;12.63;9.30;;;8.70;1.00;;;;;;5109540;27;20719;-53
2021/10/10 08:06:43;;;;;;;10.53;8.23;;;8.80;1.00;;;;;;5108286;28;20523;-56
2021/10/10 08:09:08;;;;;;;13.10;9.57;;;8.90;1.00;;;;;;5109649;28;20183;-56
2021/10/10 08:11:34;;;;;;;12.67;9.23;;;9.00;1.00;;;;;;5108390;28;20544;-55
2021/10/10 08:13:59;;;;;;;11.83;9.40;;;9.10;1.00;;;;;;5103871;28;20191;-55
2021/10/10 08:16:25;;;;;;;12.30;9.20;;;9.20;1.00;;;;;;5109235;27;20182;-54
2021/10/10 08:18:51;;;;;;;11.23;9.23;;;9.40;1.00;;;;;;5108301;27;20913;-55
2021/10/10 08:21:16;;;;;;;11.50;8.90;;;9.50;1.00;;;;;;5107405;28;20186;-53
2021/10/10 08:23:43;;;;;;;10.37;9.00;;;9.60;1.00;;;;;;5101730;28;20194;-54
2021/10/10 08:26:09;;;;;;;10.50;9.00;;;9.70;1.00;;;;;;5105042;28;20633;-55
2021/10/10 08:28:34;;;;;;;11.30;8.50;;;9.70;1.00;;;;;;5106430;28;20483;-54
2021/10/10 08:31:00;;;;;;;10.27;8.47;;;9.80;1.00;;;;;;5105898;28;20192;-54
2021/10/10 08:33:28;;;;;;;10.67;9.00;;;10.00;1.00;;;;;;5104844;28;20190;-55
2021/10/10 08:35:54;;;;;;;12.20;9.10;;;10.00;1.00;;;;;;5089652;28;20190;-53
2021/10/10 08:38:19;;;;;;;11.50;8.80;;;10.10;1.00;;;;;;5107130;28;20547;-54
2021/10/10 08:40:47;;;;;;;10.50;9.40;;;10.30;1.00;;;;;;5107403;28;20193;-54
2021/10/10 08:43:17;;;;;;;12.53;9.10;;;10.40;1.00;;;;;;5108769;28;20573;-54
2021/10/10 08:45:45;;;;;;;11.07;8.83;;;10.60;1.00;;;;;;5109829;28;20930;-53
2021/10/10 08:48:10;;;;;;;9.77;8.20;;;10.80;1.00;;;;;;5107292;28;20949;-54
2021/10/10 08:50:37;;;;;;;12.30;9.27;;;10.80;1.00;;;;;;5103759;28;20449;-53
2021/10/10 08:53:02;;;;;;;12.40;9.37;;;10.90;1.00;;;;;;5107746;27;20683;-54
2021/10/10 08:55:31;;;;;;;12.10;9.47;;;11.00;1.00;;;;;;5108413;28;20522;-53
2021/10/10 08:57:57;;;;;;;13.60;9.33;;;11.10;1.00;;;;;;5108077;28;20190;-53
2021/10/10 09:02:57;;;;;;;11.13;9.20;;;11.50;1.00;;;;;;5106345;28;20582;-53
2021/10/10 09:05:26;;;;;;;10.07;8.77;;;11.70;1.00;;;;;;5103030;28;20445;-52
2021/10/10 09:07:53;;;;;;;12.70;9.37;;;11.80;1.00;;;;;;5107335;28;20444;-52
2021/10/10 09:10:27;;;;;;;14.80;8.50;;;12.00;1.00;;;;;;5106238;28;20810;-54
2021/10/10 09:13:10;;;;;;;10.90;8.80;;;12.00;1.00;;;;;;5104130;28;20909;-61
2021/10/10 09:15:39;;;;;;;9.87;7.80;;;12.20;1.00;;;;;;5108982;28;20448;-55
2021/10/10 09:18:06;;;;;;;9.90;8.03;;;12.40;1.00;;;;;;5109492;28;20481;-53
2021/10/10 09:20:41;;;;;;;10.33;8.20;;;12.60;1.00;;;;;;5111992;28;20452;-53
2021/10/10 09:23:27;;;;;;;9.60;8.60;;;12.60;1.00;;;;;;5100521;28;20436;-53
2021/10/10 09:26:01;;;;;;;8.63;7.73;;;12.60;1.00;;;;;;5102225;28;20448;-56
2021/10/10 09:28:29;;;;;;;11.50;8.23;;;12.60;1.00;;;;;;5103387;28;20443;-53
2021/10/10 09:30:58;;;;;;;10.77;8.20;;;12.70;1.00;;;;;;5102922;28;20445;-55
2021/10/10 09:33:45;;;;;;;10.40;9.30;;;13.00;1.00;;;;;;5106566;28;20498;-56
2021/10/10 09:36:18;;;;;;;9.80;8.23;;;13.00;1.00;;;;;;5106023;28;20512;-54
2021/10/10 09:38:58;;;;;;;11.00;7.97;;;13.30;1.00;;;;;;5103281;28;21356;-54
2021/10/10 09:41:29;;;;;;;12.73;8.67;;;13.40;1.00;;;;;;5101129;28;20435;-55
2021/10/10 09:43:58;;;;;;;9.57;7.53;;;13.60;1.00;;;;;;5102526;28;20433;-55
2021/10/10 09:46:26;;;;;;;10.20;8.13;;;13.80;1.00;;;;;;5108359;28;20802;-53
2021/10/10 09:48:51;;;;;;;11.17;8.07;;;13.90;1.00;;;;;;5106679;28;20440;-55
2021/10/10 09:51:34;;;;;;;8.67;6.63;;;14.10;1.00;;;;;;5100593;28;20474;-53
2021/10/10 09:54:04;;;;;;;9.90;8.10;;;14.10;1.00;;;;;;5106314;28;20187;-54
2021/10/10 09:56:30;;;;;;;9.23;7.57;;;14.10;1.00;;;;;;5105716;28;20411;-54
2021/10/10 09:58:55;;;;;;;9.13;7.90;;;14.30;1.00;;;;;;5101668;28;20814;-55
2021/10/10 10:01:23;;;;;;;10.10;7.57;;;14.40;1.00;;;;;;5104454;27;20204;-56
2021/10/10 10:03:55;;;;;;;9.40;8.00;;;14.40;1.00;;;;;;5102011;28;20645;-53
2021/10/10 10:06:22;;;;;;;8.57;7.67;;;14.60;1.00;;;;;;5104802;28;20975;-55
2021/10/10 10:08:47;;;;;;;11.60;8.53;;;14.70;1.00;;;;;;5111654;27;20952;-53
2021/10/10 10:11:13;;;;;;;13.00;7.50;;;14.70;1.00;;;;;;5106711;28;20510;-55
2021/10/10 10:13:40;;;;;;;8.87;7.97;;;14.60;1.00;;;;;;5103345;27;20211;-57
2021/10/10 10:16:06;;;;;;;9.63;7.07;;;14.40;1.00;;;;;;5104861;28;21528;-54
2021/10/10 10:18:34;;;;;;;10.23;7.63;;;14.50;1.00;;;;;;5104673;27;20511;-54
2021/10/10 10:21:02;;;;;;;8.33;7.43;;;14.70;1.00;;;;;;5105360;28;20512;-53
2021/10/10 10:23:30;;;;;;;9.70;7.70;;;14.70;1.00;;;;;;5106941;28;20924;-54
2021/10/10 10:25:56;;;;;;;11.33;7.70;;;14.90;1.00;;;;;;5108752;28;20452;-56
2021/10/10 10:28:22;;;;;;;10.53;8.47;;;14.80;1.00;;;;;;5108038;28;20437;-54
2021/10/10 10:30:48;;;;;;;14.03;8.57;;;14.80;1.00;;;;;;5107868;28;20440;-54
2021/10/10 10:33:14;;;;;;;13.47;8.00;;;15.10;1.00;;;;;;5108572;27;20190;-56
2021/10/10 10:35:44;;;;;;;10.30;8.07;;;15.30;1.00;;;;;;5111246;28;20442;-55
2021/10/10 10:38:10;;;;;;;15.03;8.40;;;15.40;1.00;;;;;;5101318;28;20867;-55
2021/10/10 10:40:39;;;;;;;9.20;7.50;;;15.60;1.00;;;;;;5110456;28;20436;-54
2021/10/10 10:43:06;;;;;;;11.13;8.33;;;15.60;1.00;;;;;;5107359;28;20190;-54
2021/10/10 10:45:37;;;;;;;10.53;8.37;;;15.50;1.00;;;;;;5106441;28;20453;-55
2021/10/10 10:48:06;;;;;;;11.40;8.33;;;15.40;1.00;;;;;;5108305;27;20749;-54
2021/10/10 10:50:37;;;;;;;10.50;8.53;;;15.50;1.00;;;;;;5108261;28;20512;-53
2021/10/10 10:53:05;;;;;;;10.00;7.57;;;15.60;1.00;;;;;;5110432;27;20468;-53
2021/10/10 10:55:33;;;;;;;11.23;7.53;;;15.70;1.00;;;;;;5109540;28;20672;-52
2021/10/10 10:58:03;;;;;;;9.77;8.73;;;15.90;1.00;;;;;;5109107;28;20963;-53
2021/10/10 11:00:43;;;;;;;11.43;8.20;;;15.80;1.00;;;;;;5108271;27;21217;-55
2021/10/10 11:03:11;;;;;;;10.90;8.70;;;16.00;1.00;;;;;;5107713;27;20451;-54
2021/10/10 11:05:40;;;;;;;10.67;8.10;;;16.30;1.00;;;;;;5106640;27;20450;-55
2021/10/10 11:08:17;;;;;;;11.87;9.57;;;16.70;1.00;;;;;;5105164;28;20527;-53
2021/10/10 11:11:24;;;;;;;11.07;7.83;;;16.20;1.00;;;;;;5092885;28;20443;-55
2021/10/10 11:13:59;;;;;;;8.60;7.70;;;16.10;1.00;;;;;;5104823;28;20439;-54
2021/10/10 11:16:30;;;;;;;10.93;8.00;;;16.00;1.00;;;;;;5103784;28;20768;-55
2021/10/10 11:19:04;;;;;;;10.23;8.07;;;16.00;1.00;;;;;;5103741;28;20964;-54
2021/10/10 11:21:36;;;;;;;8.67;7.60;;;16.20;1.00;;;;;;5106913;28;20518;-53
2021/10/10 11:24:03;;;;;;;11.17;8.50;;;16.40;1.00;;;;;;5105985;28;20454;-54
2021/10/10 11:26:32;;;;;;;10.83;7.83;;;16.50;1.00;;;;;;5105476;28;20576;-55
2021/10/10 11:29:00;;;;;;;10.93;8.73;;;17.70;1.00;;;;;;5086214;28;20507;-53
2021/10/10 11:31:33;;;;;;;9.30;8.20;;;16.60;1.00;;;;;;5107003;27;20450;-54
2021/10/10 11:34:05;;;;;;;12.77;8.07;;;16.70;1.00;;;;;;5106675;28;20846;-55
2021/10/10 11:36:34;;;;;;;9.13;8.07;;;16.70;1.00;;;;;;5106722;28;20496;-54
2021/10/10 11:39:01;;;;;;;15.20;7.80;;;16.60;1.00;;;;;;5107250;27;20555;-55
2021/10/10 11:41:28;;;;;;;13.10;7.20;;;16.40;1.00;;;;;;5110249;28;21001;-56
2021/10/10 11:44:04;;;;;;;12.67;7.37;;;16.40;1.00;;;;;;5108974;28;21731;-54
2021/10/10 11:46:47;;;;;;;7.63;6.53;;;16.30;1.00;;;;;;5104215;28;20556;-55
2021/10/10 11:49:36;;;;;;;10.27;7.23;;;16.60;1.00;;;;;;5104091;28;20983;-54
2021/10/10 11:52:16;;;;;;;10.40;7.03;;;16.60;1.00;;;;;;5107965;28;20470;-54
2021/10/10 11:54:43;;;;;;;10.63;7.90;;;16.70;1.00;;;;;;5106035;28;20435;-54
2021/10/10 11:57:10;;;;;;;9.57;7.20;;;16.80;1.00;;;;;;5105473;28;20448;-54
2021/10/10 11:59:45;;;;;;;7.57;6.87;;;16.80;1.00;;;;;;5102044;28;20578;-54
2021/10/10 12:02:11;;;;;;;9.70;7.07;;;16.80;1.00;;;;;;5105639;28;20430;-53
2021/10/10 12:04:37;;;;;;;9.00;6.60;;;16.70;1.00;;;;;;5103567;28;20999;-55
2021/10/10 12:07:04;;;;;;;9.80;7.17;;;16.50;1.00;;;;;;5105488;27;20193;-56
2021/10/10 12:09:29;;;;;;;7.70;6.87;;;16.40;1.00;;;;;;5107689;27;20466;-55
2021/10/10 12:12:13;;;;;;;8.13;6.37;;;16.60;1.00;;;;;;5102883;27;20439;-55
2021/10/10 12:14:52;;;;;;;8.63;6.50;;;16.50;1.00;;;;;;5108987;27;20189;-58
2021/10/10 12:17:31;;;;;;;9.83;6.10;;;16.60;1.00;;;;;;5102768;27;20445;-53
2021/10/10 12:19:59;;;;;;;13.47;6.80;;;16.60;1.00;;;;;;5105457;27;20506;-54
2021/10/10 12:22:26;;;;;;;11.60;6.50;;;16.70;1.00;;;;;;5102568;28;22002;-54
2021/10/10 12:24:52;;;;;;;7.73;6.40;;;16.70;1.00;;;;;;5105714;27;20500;-54
2021/10/10 12:27:53;;;;;;;7.87;6.43;;;16.70;1.00;;;;;;5107284;27;20474;-54
2021/10/10 12:30:25;;;;;;;7.13;5.63;;;16.70;1.00;;;;;;5101718;28;20438;-54
2021/10/10 12:32:50;;;;;;;14.40;7.30;;;16.90;1.00;;;;;;5103757;28;20472;-54
2021/10/10 12:35:16;;;;;;;7.93;6.53;;;17.00;1.00;;;;;;5109627;28;20474;-54
2021/10/10 12:37:51;;;;;;;8.73;6.60;;;17.00;1.00;;;;;;5107884;28;20185;-54
2021/10/10 12:40:34;;;;;;;10.10;7.97;;;17.10;1.00;;;;;;5107019;28;20205;-52
2021/10/10 12:43:00;;;;;;;7.30;5.83;;;17.10;1.00;;;;;;5104404;28;20459;-55
2021/10/10 12:45:28;;;;;;;8.43;6.47;;;17.10;1.00;;;;;;5104792;28;20451;-54
2021/10/10 12:48:03;;;;;;;9.93;7.50;;;16.90;1.00;;;;;;5106315;28;20232;-54
2021/10/10 12:50:30;;;;;;;8.50;6.40;;;16.80;1.00;;;;;;5086829;28;20953;-53
2021/10/10 12:52:56;;;;;;;9.50;6.83;;;16.80;1.00;;;;;;5102009;28;20499;-55
2021/10/10 12:55:24;;;;;;;8.07;7.00;;;16.90;1.00;;;;;;5107205;28;20446;-54